Mia Rama — 9HA4221 — position and weather

sailwx.info

Track history (hours):
 
Tides and Currents Weather Stations Pressure Air Temp Water Temp Dewpoint Dewpoint Depression Visibility Wind Speed Wind Dir Waves Ship Positions

Mia Rama

Last reported at 2017-Sep-21 19:04 UTC. Time now 2017-Sep-22 08:30 UTC.
Position N 43°35' E 007°10'.

Length 54 m; draft 3.3 m.

Type: Pleasure craft. MMSI: 249373000.

Date/timePositionNaut miles runAvg speedWind from/ knotsBaromVisibWave heightAir tempDewpointWater temp
2017-Sep-21 19:04N 43°35' E 007°10'411.0
2017-Sep-21 18:44N 43°31' E 007°09'313.6
2017-Sep-21 18:30N 43°30' E 007°05'4 7.5
2017-Sep-21 18:00N 43°32' E 007°01'0 0.1
2017-Sep-21 17:26N 43°32' E 007°01'0 0.0
2017-Sep-21 16:59N 43°32' E 007°01'0 0.0
2017-Sep-21 16:29N 43°32' E 007°01'0 0.8
2017-Sep-21 16:00N 43°32' E 007°01'4 7.7
2017-Sep-21 15:31N 43°30' E 007°06'5 5.1
2017-Sep-21 14:30N 43°35' E 007°08'0 0.0
2017-Sep-21 14:00N 43°35' E 007°08'0 0.0
2017-Sep-21 11:30N 43°35' E 007°08'0 0.0
2017-Sep-21 01:54N 43°35' E 007°08'3 0.1
2017-Sep-19 04:38N 43°36' E 007°12'5 0.3
2017-Sep-18 11:20N 43°31' E 007°09'514.0
2017-Sep-18 11:00N 43°27' E 007°06'24213.4
2017-Sep-17 16:57N 40°37' E 003°14'613.6
2017-Sep-17 16:30N 40°33' E 003°08'813.7
2017-Sep-17 15:56N 40°28' E 003°01'813.7
2017-Sep-17 15:22N 40°22' E 002°54'513.8
2017-Sep-17 14:59N 40°18' E 002°49'713.9
2017-Sep-17 14:28N 40°13' E 002°42'913.9
2017-Sep-17 13:51N 40°08' E 002°34'514.0
2017-Sep-17 13:30N 40°04' E 002°29'714.1
2017-Sep-17 13:00N 39°59' E 002°22'713.9
2017-Sep-17 12:30N 39°55' E 002°16'714.6
2017-Sep-17 12:01N 39°50' E 002°08'714.4
2017-Sep-17 11:30N 39°45' E 002°01'15713.2
2017-Sep-16 23:37N 37°58' W 000°26'213.4
2017-Sep-16 23:30N 37°56' W 000°26'713.5
2017-Sep-16 23:00N 37°50' W 000°29'713.4
2017-Sep-16 22:30N 37°44' W 000°32'1312.5
2017-Sep-16 21:28N 37°33' W 000°41'612.5
2017-Sep-16 21:00N 37°30' W 000°47'611.0
2017-Sep-16 20:28N 37°29' W 000°55'  
2017-Sep-11 23:59N 36°29' W 004°57'0 0.0
2017-Sep-11 23:08N 36°29' W 004°57'0 0.0
2017-Sep-11 22:59N 36°29' W 004°57'0 0.0
2017-Sep-11 22:29N 36°29' W 004°57'0 0.0
2017-Sep-11 21:59N 36°29' W 004°57'0 0.0
2017-Sep-11 20:44N 36°29' W 004°57'0 0.0
2017-Sep-11 20:29N 36°29' W 004°57'0 0.0
2017-Sep-11 19:59N 36°29' W 004°57'0 0.0
2017-Sep-11 19:26N 36°29' W 004°57'  
Track history (hours):
 
Tides and Currents Weather Stations Pressure Air Temp Water Temp Dewpoint Dewpoint Depression Visibility Wind Speed Wind Dir Waves Ship Positions

Mia Rama

Last reported at 2017-Sep-21 19:04 UTC. Time now 2017-Sep-22 08:30 UTC.
Position N 43°35' E 007°10'.

Length 54 m; draft 3.3 m.

Type: Pleasure craft. MMSI: 249373000.

Date/timePositionNaut miles runAvg speedWind from/ knotsBaromVisibWave heightAir tempDewpointWater temp
2017-Sep-21 19:04N 43°35' E 007°10'411.0
2017-Sep-21 18:44N 43°31' E 007°09'313.6
2017-Sep-21 18:30N 43°30' E 007°05'4 7.5
2017-Sep-21 18:00N 43°32' E 007°01'0 0.1
2017-Sep-21 17:26N 43°32' E 007°01'0 0.0
2017-Sep-21 16:59N 43°32' E 007°01'0 0.0
2017-Sep-21 16:29N 43°32' E 007°01'0 0.8
2017-Sep-21 16:00N 43°32' E 007°01'4 7.7
2017-Sep-21 15:31N 43°30' E 007°06'5 5.1
2017-Sep-21 14:30N 43°35' E 007°08'0 0.0
2017-Sep-21 14:00N 43°35' E 007°08'0 0.0
2017-Sep-21 11:30N 43°35' E 007°08'0 0.0
2017-Sep-21 01:54N 43°35' E 007°08'3 0.1
2017-Sep-19 04:38N 43°36' E 007°12'5 0.3
2017-Sep-18 11:20N 43°31' E 007°09'514.0
2017-Sep-18 11:00N 43°27' E 007°06'24213.4
2017-Sep-17 16:57N 40°37' E 003°14'613.6
2017-Sep-17 16:30N 40°33' E 003°08'813.7
2017-Sep-17 15:56N 40°28' E 003°01'813.7
2017-Sep-17 15:22N 40°22' E 002°54'513.8
2017-Sep-17 14:59N 40°18' E 002°49'713.9
2017-Sep-17 14:28N 40°13' E 002°42'913.9
2017-Sep-17 13:51N 40°08' E 002°34'514.0
2017-Sep-17 13:30N 40°04' E 002°29'714.1
2017-Sep-17 13:00N 39°59' E 002°22'713.9
2017-Sep-17 12:30N 39°55' E 002°16'714.6
2017-Sep-17 12:01N 39°50' E 002°08'714.4
2017-Sep-17 11:30N 39°45' E 002°01'15713.2
2017-Sep-16 23:37N 37°58' W 000°26'213.4
2017-Sep-16 23:30N 37°56' W 000°26'713.5
2017-Sep-16 23:00N 37°50' W 000°29'713.4
2017-Sep-16 22:30N 37°44' W 000°32'1312.5
2017-Sep-16 21:28N 37°33' W 000°41'612.5
2017-Sep-16 21:00N 37°30' W 000°47'611.0
2017-Sep-16 20:28N 37°29' W 000°55'  
2017-Sep-11 23:59N 36°29' W 004°57'0 0.0
2017-Sep-11 23:08N 36°29' W 004°57'0 0.0
2017-Sep-11 22:59N 36°29' W 004°57'0 0.0
2017-Sep-11 22:29N 36°29' W 004°57'0 0.0
2017-Sep-11 21:59N 36°29' W 004°57'0 0.0
2017-Sep-11 20:44N 36°29' W 004°57'0 0.0
2017-Sep-11 20:29N 36°29' W 004°57'0 0.0
2017-Sep-11 19:59N 36°29' W 004°57'0 0.0
2017-Sep-11 19:26N 36°29' W 004°57'  

Dump ship's entire track history